sensor_id;sensor_type;location;lat;lon;timestamp;temperature;humidity
26107;DHT22;13866;50.748;12.630;2023-07-31T00:00:07;14.60;99.90
26107;DHT22;13866;50.748;12.630;2023-07-31T00:02:34;14.60;99.90
26107;DHT22;13866;50.748;12.630;2023-07-31T00:05:00;14.60;99.90
26107;DHT22;13866;50.748;12.630;2023-07-31T00:07:27;14.60;99.90
26107;DHT22;13866;50.748;12.630;2023-07-31T00:09:52;14.60;99.90
26107;DHT22;13866;50.748;12.630;2023-07-31T00:12:19;14.60;99.90
26107;DHT22;13866;50.748;12.630;2023-07-31T00:14:45;14.60;99.90
26107;DHT22;13866;50.748;12.630;2023-07-31T00:17:11;14.60;99.90
26107;DHT22;13866;50.748;12.630;2023-07-31T00:19:36;14.60;99.90
26107;DHT22;13866;50.748;12.630;2023-07-31T00:22:02;14.60;99.90
26107;DHT22;13866;50.748;12.630;2023-07-31T00:24:28;14.60;99.90
26107;DHT22;13866;50.748;12.630;2023-07-31T00:26:53;14.60;99.90
26107;DHT22;13866;50.748;12.630;2023-07-31T00:29:19;14.70;99.90
26107;DHT22;13866;50.748;12.630;2023-07-31T00:31:44;14.70;99.90
26107;DHT22;13866;50.748;12.630;2023-07-31T00:34:10;14.70;99.90
26107;DHT22;13866;50.748;12.630;2023-07-31T00:36:35;14.70;99.90
26107;DHT22;13866;50.748;12.630;2023-07-31T00:39:01;14.70;99.90
26107;DHT22;13866;50.748;12.630;2023-07-31T00:41:26;14.80;99.90
26107;DHT22;13866;50.748;12.630;2023-07-31T00:43:52;14.80;99.90
26107;DHT22;13866;50.748;12.630;2023-07-31T00:46:17;14.90;99.90
26107;DHT22;13866;50.748;12.630;2023-07-31T00:48:43;14.90;99.90
26107;DHT22;13866;50.748;12.630;2023-07-31T00:51:09;14.90;99.90
26107;DHT22;13866;50.748;12.630;2023-07-31T00:53:35;15.00;99.90
26107;DHT22;13866;50.748;12.630;2023-07-31T00:56:01;15.00;99.90
26107;DHT22;13866;50.748;12.630;2023-07-31T00:58:27;15.00;99.90
26107;DHT22;13866;50.748;12.630;2023-07-31T01:00:52;15.00;99.90
26107;DHT22;13866;50.748;12.630;2023-07-31T01:03:18;15.00;99.90
26107;DHT22;13866;50.748;12.630;2023-07-31T01:06:09;15.00;99.90
26107;DHT22;13866;50.748;12.630;2023-07-31T01:08:49;15.00;99.90
26107;DHT22;13866;50.748;12.630;2023-07-31T01:11:21;15.10;99.90
26107;DHT22;13866;50.748;12.630;2023-07-31T01:13:50;15.10;99.90
26107;DHT22;13866;50.748;12.630;2023-07-31T01:16:16;15.20;99.90
26107;DHT22;13866;50.748;12.630;2023-07-31T01:18:42;15.20;99.90
26107;DHT22;13866;50.748;12.630;2023-07-31T01:24:21;15.30;99.90
26107;DHT22;13866;50.748;12.630;2023-07-31T01:26:53;15.30;99.90
26107;DHT22;13866;50.748;12.630;2023-07-31T01:29:38;15.30;99.90
26107;DHT22;13866;50.748;12.630;2023-07-31T01:32:06;15.30;99.90
26107;DHT22;13866;50.748;12.630;2023-07-31T01:34:33;15.30;99.90
26107;DHT22;13866;50.748;12.630;2023-07-31T01:37:00;15.30;99.90
26107;DHT22;13866;50.748;12.630;2023-07-31T01:39:25;15.20;99.90
26107;DHT22;13866;50.748;12.630;2023-07-31T01:41:51;15.20;99.90
26107;DHT22;13866;50.748;12.630;2023-07-31T01:44:16;15.20;99.90
26107;DHT22;13866;50.748;12.630;2023-07-31T01:46:42;15.20;99.90
26107;DHT22;13866;50.748;12.630;2023-07-31T01:49:07;15.20;99.90
26107;DHT22;13866;50.748;12.630;2023-07-31T01:51:33;15.10;99.90
26107;DHT22;13866;50.748;12.630;2023-07-31T01:54:00;15.10;99.90
26107;DHT22;13866;50.748;12.630;2023-07-31T01:56:25;15.10;99.90
26107;DHT22;13866;50.748;12.630;2023-07-31T01:58:51;15.10;99.90
26107;DHT22;13866;50.748;12.630;2023-07-31T02:01:16;15.00;99.90
26107;DHT22;13866;50.748;12.630;2023-07-31T02:03:42;14.90;99.90
26107;DHT22;13866;50.748;12.630;2023-07-31T02:06:07;14.90;99.90
26107;DHT22;13866;50.748;12.630;2023-07-31T02:08:33;14.80;99.90
26107;DHT22;13866;50.748;12.630;2023-07-31T02:10:58;14.80;99.90
26107;DHT22;13866;50.748;12.630;2023-07-31T02:13:24;14.70;99.90
26107;DHT22;13866;50.748;12.630;2023-07-31T02:15:49;14.70;99.90
26107;DHT22;13866;50.748;12.630;2023-07-31T02:18:16;14.60;99.90
26107;DHT22;13866;50.748;12.630;2023-07-31T02:20:41;14.60;99.90
26107;DHT22;13866;50.748;12.630;2023-07-31T02:23:07;14.60;99.90
26107;DHT22;13866;50.748;12.630;2023-07-31T02:25:32;14.50;99.90
26107;DHT22;13866;50.748;12.630;2023-07-31T02:27:58;14.50;99.90
26107;DHT22;13866;50.748;12.630;2023-07-31T02:30:23;14.40;99.90
26107;DHT22;13866;50.748;12.630;2023-07-31T02:32:49;14.40;99.90
26107;DHT22;13866;50.748;12.630;2023-07-31T02:35:14;14.30;99.90
26107;DHT22;13866;50.748;12.630;2023-07-31T02:37:41;14.30;99.90
26107;DHT22;13866;50.748;12.630;2023-07-31T02:40:07;14.30;99.90
26107;DHT22;13866;50.748;12.630;2023-07-31T02:42:33;14.20;99.90
26107;DHT22;13866;50.748;12.630;2023-07-31T02:44:59;14.20;99.90
26107;DHT22;13866;50.748;12.630;2023-07-31T02:47:24;14.20;99.90
26107;DHT22;13866;50.748;12.630;2023-07-31T02:49:50;14.20;99.90
26107;DHT22;13866;50.748;12.630;2023-07-31T02:52:15;14.10;99.90
26107;DHT22;13866;50.748;12.630;2023-07-31T02:54:41;14.00;99.90
26107;DHT22;13866;50.748;12.630;2023-07-31T02:57:06;14.00;99.90
26107;DHT22;13866;50.748;12.630;2023-07-31T02:59:32;14.00;99.90
26107;DHT22;13866;50.748;12.630;2023-07-31T03:01:57;14.10;99.90
26107;DHT22;13866;50.748;12.630;2023-07-31T03:04:23;14.10;99.90
26107;DHT22;13866;50.748;12.630;2023-07-31T03:06:48;14.10;99.90
26107;DHT22;13866;50.748;12.630;2023-07-31T03:09:14;14.10;99.90
26107;DHT22;13866;50.748;12.630;2023-07-31T03:11:39;14.10;99.90
26107;DHT22;13866;50.748;12.630;2023-07-31T03:14:05;14.00;99.90
26107;DHT22;13866;50.748;12.630;2023-07-31T03:16:30;14.00;99.90
26107;DHT22;13866;50.748;12.630;2023-07-31T03:18:56;14.00;99.90
26107;DHT22;13866;50.748;12.630;2023-07-31T03:21:21;14.00;99.90
26107;DHT22;13866;50.748;12.630;2023-07-31T03:23:47;13.90;99.90
26107;DHT22;13866;50.748;12.630;2023-07-31T03:26:12;13.90;99.90
26107;DHT22;13866;50.748;12.630;2023-07-31T03:28:38;13.90;99.90
26107;DHT22;13866;50.748;12.630;2023-07-31T03:31:03;13.90;99.90
26107;DHT22;13866;50.748;12.630;2023-07-31T03:33:29;13.90;99.90
26107;DHT22;13866;50.748;12.630;2023-07-31T03:35:55;13.90;99.90
26107;DHT22;13866;50.748;12.630;2023-07-31T03:38:20;13.90;99.90
26107;DHT22;13866;50.748;12.630;2023-07-31T03:40:46;13.90;99.90
26107;DHT22;13866;50.748;12.630;2023-07-31T03:43:13;13.90;99.90
26107;DHT22;13866;50.748;12.630;2023-07-31T03:45:38;13.90;99.90
26107;DHT22;13866;50.748;12.630;2023-07-31T03:48:04;13.90;99.90
26107;DHT22;13866;50.748;12.630;2023-07-31T03:50:30;13.90;99.90
26107;DHT22;13866;50.748;12.630;2023-07-31T03:52:56;13.90;99.90
26107;DHT22;13866;50.748;12.630;2023-07-31T03:55:21;13.90;99.90
26107;DHT22;13866;50.748;12.630;2023-07-31T03:57:47;13.90;99.90
26107;DHT22;13866;50.748;12.630;2023-07-31T04:00:13;13.90;99.90
26107;DHT22;13866;50.748;12.630;2023-07-31T04:02:38;13.90;99.90
26107;DHT22;13866;50.748;12.630;2023-07-31T04:05:04;13.90;99.90
26107;DHT22;13866;50.748;12.630;2023-07-31T04:07:29;13.90;99.90
26107;DHT22;13866;50.748;12.630;2023-07-31T04:09:56;13.90;99.90
26107;DHT22;13866;50.748;12.630;2023-07-31T04:12:22;13.90;99.90
26107;DHT22;13866;50.748;12.630;2023-07-31T04:14:47;14.00;99.90
26107;DHT22;13866;50.748;12.630;2023-07-31T04:17:13;13.90;99.90
26107;DHT22;13866;50.748;12.630;2023-07-31T04:19:38;13.90;99.90
26107;DHT22;13866;50.748;12.630;2023-07-31T04:22:04;13.90;99.90
26107;DHT22;13866;50.748;12.630;2023-07-31T04:24:30;14.00;99.90
26107;DHT22;13866;50.748;12.630;2023-07-31T04:26:55;14.00;99.90
26107;DHT22;13866;50.748;12.630;2023-07-31T04:29:21;14.00;99.90
26107;DHT22;13866;50.748;12.630;2023-07-31T04:31:48;14.00;99.90
26107;DHT22;13866;50.748;12.630;2023-07-31T04:34:13;14.00;99.90
26107;DHT22;13866;50.748;12.630;2023-07-31T04:36:39;14.00;99.90
26107;DHT22;13866;50.748;12.630;2023-07-31T04:39:05;14.10;99.90
26107;DHT22;13866;50.748;12.630;2023-07-31T04:41:30;14.10;99.90
26107;DHT22;13866;50.748;12.630;2023-07-31T04:43:56;14.10;99.90
26107;DHT22;13866;50.748;12.630;2023-07-31T04:46:21;14.10;99.90
26107;DHT22;13866;50.748;12.630;2023-07-31T04:48:47;14.10;99.90
26107;DHT22;13866;50.748;12.630;2023-07-31T04:51:12;14.20;99.90
26107;DHT22;13866;50.748;12.630;2023-07-31T04:53:38;14.20;99.90
26107;DHT22;13866;50.748;12.630;2023-07-31T04:56:03;14.30;99.90
26107;DHT22;13866;50.748;12.630;2023-07-31T04:58:29;14.40;99.90
26107;DHT22;13866;50.748;12.630;2023-07-31T05:00:54;14.50;99.90
26107;DHT22;13866;50.748;12.630;2023-07-31T05:03:20;14.60;99.90
26107;DHT22;13866;50.748;12.630;2023-07-31T05:05:45;14.60;99.90
26107;DHT22;13866;50.748;12.630;2023-07-31T05:08:11;14.60;99.90
26107;DHT22;13866;50.748;12.630;2023-07-31T05:10:37;14.70;99.90
26107;DHT22;13866;50.748;12.630;2023-07-31T05:13:02;14.60;99.90
26107;DHT22;13866;50.748;12.630;2023-07-31T05:15:28;14.60;99.90
26107;DHT22;13866;50.748;12.630;2023-07-31T05:17:54;14.60;99.90
26107;DHT22;13866;50.748;12.630;2023-07-31T05:20:20;14.70;99.90
26107;DHT22;13866;50.748;12.630;2023-07-31T05:22:45;14.70;99.90
26107;DHT22;13866;50.748;12.630;2023-07-31T05:25:11;14.70;99.90
26107;DHT22;13866;50.748;12.630;2023-07-31T05:27:36;14.80;99.90
26107;DHT22;13866;50.748;12.630;2023-07-31T05:30:02;14.80;99.90
26107;DHT22;13866;50.748;12.630;2023-07-31T05:32:28;14.80;99.90
26107;DHT22;13866;50.748;12.630;2023-07-31T05:34:53;14.80;99.90
26107;DHT22;13866;50.748;12.630;2023-07-31T05:37:19;14.80;99.90
26107;DHT22;13866;50.748;12.630;2023-07-31T05:39:45;14.80;99.90
26107;DHT22;13866;50.748;12.630;2023-07-31T05:42:10;14.80;99.90
26107;DHT22;13866;50.748;12.630;2023-07-31T05:44:36;14.90;99.90
26107;DHT22;13866;50.748;12.630;2023-07-31T05:47:02;14.90;99.90
26107;DHT22;13866;50.748;12.630;2023-07-31T05:49:27;15.00;99.90
26107;DHT22;13866;50.748;12.630;2023-07-31T05:51:53;15.00;99.90
26107;DHT22;13866;50.748;12.630;2023-07-31T05:54:18;15.10;99.90
26107;DHT22;13866;50.748;12.630;2023-07-31T05:56:44;15.10;99.90
26107;DHT22;13866;50.748;12.630;2023-07-31T05:59:12;15.10;99.90
26107;DHT22;13866;50.748;12.630;2023-07-31T06:01:37;15.20;99.90
26107;DHT22;13866;50.748;12.630;2023-07-31T06:04:03;15.30;99.90
26107;DHT22;13866;50.748;12.630;2023-07-31T06:06:29;15.40;99.90
26107;DHT22;13866;50.748;12.630;2023-07-31T06:08:55;15.40;99.90
26107;DHT22;13866;50.748;12.630;2023-07-31T06:11:21;15.50;99.90
26107;DHT22;13866;50.748;12.630;2023-07-31T06:13:47;15.50;99.90
26107;DHT22;13866;50.748;12.630;2023-07-31T06:16:14;15.50;99.90
26107;DHT22;13866;50.748;12.630;2023-07-31T06:18:39;15.50;99.90
26107;DHT22;13866;50.748;12.630;2023-07-31T06:21:05;15.60;99.90
26107;DHT22;13866;50.748;12.630;2023-07-31T06:23:31;15.70;99.90
26107;DHT22;13866;50.748;12.630;2023-07-31T06:25:57;15.80;99.90
26107;DHT22;13866;50.748;12.630;2023-07-31T06:28:30;15.80;99.90
26107;DHT22;13866;50.748;12.630;2023-07-31T06:30:57;15.90;99.90
26107;DHT22;13866;50.748;12.630;2023-07-31T06:33:22;15.90;99.90
26107;DHT22;13866;50.748;12.630;2023-07-31T06:35:48;16.00;99.90
26107;DHT22;13866;50.748;12.630;2023-07-31T06:38:13;16.00;99.90
26107;DHT22;13866;50.748;12.630;2023-07-31T06:40:39;16.00;99.90
26107;DHT22;13866;50.748;12.630;2023-07-31T06:43:05;16.00;99.90
26107;DHT22;13866;50.748;12.630;2023-07-31T06:45:37;16.10;99.90
26107;DHT22;13866;50.748;12.630;2023-07-31T06:48:03;16.20;99.90
26107;DHT22;13866;50.748;12.630;2023-07-31T06:50:30;16.20;99.90
26107;DHT22;13866;50.748;12.630;2023-07-31T06:52:56;16.20;99.90
26107;DHT22;13866;50.748;12.630;2023-07-31T06:55:22;16.30;99.90
26107;DHT22;13866;50.748;12.630;2023-07-31T06:57:52;16.30;99.90
26107;DHT22;13866;50.748;12.630;2023-07-31T07:00:19;16.40;99.90
26107;DHT22;13866;50.748;12.630;2023-07-31T07:02:45;16.40;99.90
26107;DHT22;13866;50.748;12.630;2023-07-31T07:05:12;16.50;99.90
26107;DHT22;13866;50.748;12.630;2023-07-31T07:07:38;16.40;99.90
26107;DHT22;13866;50.748;12.630;2023-07-31T07:10:04;16.40;99.90
26107;DHT22;13866;50.748;12.630;2023-07-31T07:12:31;16.50;99.90
26107;DHT22;13866;50.748;12.630;2023-07-31T07:14:57;16.50;99.90
26107;DHT22;13866;50.748;12.630;2023-07-31T07:17:23;16.60;99.90
26107;DHT22;13866;50.748;12.630;2023-07-31T07:19:49;16.60;99.90
26107;DHT22;13866;50.748;12.630;2023-07-31T07:22:15;16.70;99.90
26107;DHT22;13866;50.748;12.630;2023-07-31T07:24:41;16.80;99.90
26107;DHT22;13866;50.748;12.630;2023-07-31T07:27:07;16.90;99.90
26107;DHT22;13866;50.748;12.630;2023-07-31T07:29:34;17.00;99.90
26107;DHT22;13866;50.748;12.630;2023-07-31T07:32:00;17.10;99.90
26107;DHT22;13866;50.748;12.630;2023-07-31T07:34:26;17.10;99.90
26107;DHT22;13866;50.748;12.630;2023-07-31T07:36:52;17.10;99.90
26107;DHT22;13866;50.748;12.630;2023-07-31T07:39:18;17.10;99.90
26107;DHT22;13866;50.748;12.630;2023-07-31T07:41:43;17.10;99.90
26107;DHT22;13866;50.748;12.630;2023-07-31T07:44:09;17.20;99.90
26107;DHT22;13866;50.748;12.630;2023-07-31T07:46:35;17.30;99.90
26107;DHT22;13866;50.748;12.630;2023-07-31T07:49:00;17.30;99.90
26107;DHT22;13866;50.748;12.630;2023-07-31T07:51:26;17.30;99.90
26107;DHT22;13866;50.748;12.630;2023-07-31T07:53:51;17.20;99.90
26107;DHT22;13866;50.748;12.630;2023-07-31T07:56:17;17.20;99.90
26107;DHT22;13866;50.748;12.630;2023-07-31T07:58:42;17.10;99.90
26107;DHT22;13866;50.748;12.630;2023-07-31T08:01:08;17.10;99.90
26107;DHT22;13866;50.748;12.630;2023-07-31T08:03:33;17.10;99.90
26107;DHT22;13866;50.748;12.630;2023-07-31T08:05:59;16.90;99.90
26107;DHT22;13866;50.748;12.630;2023-07-31T08:08:25;16.80;99.90
26107;DHT22;13866;50.748;12.630;2023-07-31T08:10:51;16.90;99.90
26107;DHT22;13866;50.748;12.630;2023-07-31T08:13:16;16.90;99.90
26107;DHT22;13866;50.748;12.630;2023-07-31T08:15:42;16.80;99.90
26107;DHT22;13866;50.748;12.630;2023-07-31T08:18:08;16.90;99.90
26107;DHT22;13866;50.748;12.630;2023-07-31T08:20:34;16.90;99.90
26107;DHT22;13866;50.748;12.630;2023-07-31T08:22:59;16.90;99.90
26107;DHT22;13866;50.748;12.630;2023-07-31T08:25:25;16.90;99.90
26107;DHT22;13866;50.748;12.630;2023-07-31T08:27:50;16.90;99.90
26107;DHT22;13866;50.748;12.630;2023-07-31T08:30:18;16.90;99.90
26107;DHT22;13866;50.748;12.630;2023-07-31T08:32:44;17.00;99.90
26107;DHT22;13866;50.748;12.630;2023-07-31T08:35:09;17.00;99.90
26107;DHT22;13866;50.748;12.630;2023-07-31T08:37:35;17.00;99.90
26107;DHT22;13866;50.748;12.630;2023-07-31T08:40:00;17.00;99.90
26107;DHT22;13866;50.748;12.630;2023-07-31T08:42:26;17.00;99.90
26107;DHT22;13866;50.748;12.630;2023-07-31T08:44:52;17.00;99.90
26107;DHT22;13866;50.748;12.630;2023-07-31T08:47:20;17.00;99.90
26107;DHT22;13866;50.748;12.630;2023-07-31T08:49:47;17.00;99.90
26107;DHT22;13866;50.748;12.630;2023-07-31T08:52:13;17.00;99.90
26107;DHT22;13866;50.748;12.630;2023-07-31T08:54:39;17.00;99.90
26107;DHT22;13866;50.748;12.630;2023-07-31T08:57:05;17.00;99.90
26107;DHT22;13866;50.748;12.630;2023-07-31T08:59:33;17.00;99.90
26107;DHT22;13866;50.748;12.630;2023-07-31T09:02:05;17.10;99.90
26107;DHT22;13866;50.748;12.630;2023-07-31T09:04:31;17.20;99.90
26107;DHT22;13866;50.748;12.630;2023-07-31T09:07:00;17.30;99.90
26107;DHT22;13866;50.748;12.630;2023-07-31T09:09:26;17.30;99.90
26107;DHT22;13866;50.748;12.630;2023-07-31T09:11:52;17.40;99.90
26107;DHT22;13866;50.748;12.630;2023-07-31T09:14:18;17.60;99.90
26107;DHT22;13866;50.748;12.630;2023-07-31T09:16:55;17.70;99.90
26107;DHT22;13866;50.748;12.630;2023-07-31T09:19:32;17.80;99.90
26107;DHT22;13866;50.748;12.630;2023-07-31T09:21:59;17.90;99.90
26107;DHT22;13866;50.748;12.630;2023-07-31T09:24:29;18.00;99.90
26107;DHT22;13866;50.748;12.630;2023-07-31T09:26:56;18.00;99.90
26107;DHT22;13866;50.748;12.630;2023-07-31T09:29:22;18.00;99.90
26107;DHT22;13866;50.748;12.630;2023-07-31T09:31:48;18.10;99.90
26107;DHT22;13866;50.748;12.630;2023-07-31T09:34:14;18.10;99.90
26107;DHT22;13866;50.748;12.630;2023-07-31T09:36:47;18.20;99.90
26107;DHT22;13866;50.748;12.630;2023-07-31T09:39:14;18.20;99.90
26107;DHT22;13866;50.748;12.630;2023-07-31T09:41:44;18.20;99.90
26107;DHT22;13866;50.748;12.630;2023-07-31T09:44:10;18.50;99.90
26107;DHT22;13866;50.748;12.630;2023-07-31T09:46:36;18.80;99.90
26107;DHT22;13866;50.748;12.630;2023-07-31T09:49:11;18.80;99.90
26107;DHT22;13866;50.748;12.630;2023-07-31T09:51:38;18.60;99.90
26107;DHT22;13866;50.748;12.630;2023-07-31T09:54:13;18.50;99.90
26107;DHT22;13866;50.748;12.630;2023-07-31T09:56:49;18.60;99.90
26107;DHT22;13866;50.748;12.630;2023-07-31T09:59:16;18.60;99.90
26107;DHT22;13866;50.748;12.630;2023-07-31T10:01:43;18.50;99.90
26107;DHT22;13866;50.748;12.630;2023-07-31T10:04:12;18.50;99.90
26107;DHT22;13866;50.748;12.630;2023-07-31T10:06:40;18.60;99.90
26107;DHT22;13866;50.748;12.630;2023-07-31T10:09:07;18.60;99.90
26107;DHT22;13866;50.748;12.630;2023-07-31T10:11:59;19.00;99.90
26107;DHT22;13866;50.748;12.630;2023-07-31T10:14:24;19.20;99.90
26107;DHT22;13866;50.748;12.630;2023-07-31T10:16:49;19.40;99.90
26107;DHT22;13866;50.748;12.630;2023-07-31T10:19:16;19.40;99.90
26107;DHT22;13866;50.748;12.630;2023-07-31T10:21:42;19.30;99.90
26107;DHT22;13866;50.748;12.630;2023-07-31T10:24:08;19.10;99.90
26107;DHT22;13866;50.748;12.630;2023-07-31T10:26:35;19.00;99.90
26107;DHT22;13866;50.748;12.630;2023-07-31T10:29:03;19.10;99.90
26107;DHT22;13866;50.748;12.630;2023-07-31T10:31:28;19.10;99.90
26107;DHT22;13866;50.748;12.630;2023-07-31T10:33:55;19.40;99.90
26107;DHT22;13866;50.748;12.630;2023-07-31T10:36:22;19.70;99.90
26107;DHT22;13866;50.748;12.630;2023-07-31T10:38:51;20.10;99.90
26107;DHT22;13866;50.748;12.630;2023-07-31T10:41:16;20.70;99.90
26107;DHT22;13866;50.748;12.630;2023-07-31T10:43:42;21.00;99.90
26107;DHT22;13866;50.748;12.630;2023-07-31T10:46:11;20.80;99.90
26107;DHT22;13866;50.748;12.630;2023-07-31T10:48:38;20.50;99.90
26107;DHT22;13866;50.748;12.630;2023-07-31T10:51:08;20.30;99.90
26107;DHT22;13866;50.748;12.630;2023-07-31T10:53:34;20.20;99.90
26107;DHT22;13866;50.748;12.630;2023-07-31T10:56:04;20.20;99.90
26107;DHT22;13866;50.748;12.630;2023-07-31T10:58:30;20.10;99.90
26107;DHT22;13866;50.748;12.630;2023-07-31T11:01:01;20.10;99.90
26107;DHT22;13866;50.748;12.630;2023-07-31T11:06:09;20.10;99.90
26107;DHT22;13866;50.748;12.630;2023-07-31T11:08:46;20.10;99.90
26107;DHT22;13866;50.748;12.630;2023-07-31T11:11:14;20.10;99.90
26107;DHT22;13866;50.748;12.630;2023-07-31T11:13:57;20.20;99.90
26107;DHT22;13866;50.748;12.630;2023-07-31T11:16:24;20.00;99.90
26107;DHT22;13866;50.748;12.630;2023-07-31T11:18:51;20.20;99.90
26107;DHT22;13866;50.748;12.630;2023-07-31T11:21:23;20.10;99.90
26107;DHT22;13866;50.748;12.630;2023-07-31T11:23:55;20.10;99.90
26107;DHT22;13866;50.748;12.630;2023-07-31T11:26:21;20.00;99.90
26107;DHT22;13866;50.748;12.630;2023-07-31T11:28:49;20.00;99.90
26107;DHT22;13866;50.748;12.630;2023-07-31T11:31:15;20.10;99.90
26107;DHT22;13866;50.748;12.630;2023-07-31T11:33:40;20.10;99.90
26107;DHT22;13866;50.748;12.630;2023-07-31T11:36:14;20.10;99.90
26107;DHT22;13866;50.748;12.630;2023-07-31T11:38:39;20.00;99.90
26107;DHT22;13866;50.748;12.630;2023-07-31T11:41:06;20.00;99.90
26107;DHT22;13866;50.748;12.630;2023-07-31T11:43:32;19.80;99.90
26107;DHT22;13866;50.748;12.630;2023-07-31T11:45:59;19.80;99.90
26107;DHT22;13866;50.748;12.630;2023-07-31T11:48:27;19.80;99.90
26107;DHT22;13866;50.748;12.630;2023-07-31T11:51:02;19.90;99.90
26107;DHT22;13866;50.748;12.630;2023-07-31T11:53:44;20.00;99.90
26107;DHT22;13866;50.748;12.630;2023-07-31T11:56:13;20.00;99.90
26107;DHT22;13866;50.748;12.630;2023-07-31T11:58:39;19.90;99.90
26107;DHT22;13866;50.748;12.630;2023-07-31T12:01:05;20.10;99.90
26107;DHT22;13866;50.748;12.630;2023-07-31T12:03:32;20.30;99.90
26107;DHT22;13866;50.748;12.630;2023-07-31T12:05:58;20.40;98.80
26107;DHT22;13866;50.748;12.630;2023-07-31T12:08:24;20.70;98.20
26107;DHT22;13866;50.748;12.630;2023-07-31T12:10:54;20.80;98.00
26107;DHT22;13866;50.748;12.630;2023-07-31T12:13:25;21.10;99.20
26107;DHT22;13866;50.748;12.630;2023-07-31T12:15:58;21.20;93.80
26107;DHT22;13866;50.748;12.630;2023-07-31T12:18:25;21.10;95.60
26107;DHT22;13866;50.748;12.630;2023-07-31T12:20:56;21.10;93.90
26107;DHT22;13866;50.748;12.630;2023-07-31T12:23:24;21.10;93.40
26107;DHT22;13866;50.748;12.630;2023-07-31T12:26:08;21.00;94.50
26107;DHT22;13866;50.748;12.630;2023-07-31T12:28:40;21.00;95.10
26107;DHT22;13866;50.748;12.630;2023-07-31T12:31:08;21.00;92.60
26107;DHT22;13866;50.748;12.630;2023-07-31T12:33:35;20.90;95.90
26107;DHT22;13866;50.748;12.630;2023-07-31T12:36:03;20.80;95.40
26107;DHT22;13866;50.748;12.630;2023-07-31T12:38:29;20.80;96.30
26107;DHT22;13866;50.748;12.630;2023-07-31T12:40:55;20.90;97.30
26107;DHT22;13866;50.748;12.630;2023-07-31T12:43:20;20.90;95.80
26107;DHT22;13866;50.748;12.630;2023-07-31T12:45:46;20.80;98.20
26107;DHT22;13866;50.748;12.630;2023-07-31T12:48:13;20.60;97.50
26107;DHT22;13866;50.748;12.630;2023-07-31T12:50:38;20.80;99.90
26107;DHT22;13866;50.748;12.630;2023-07-31T12:53:05;20.80;99.90
26107;DHT22;13866;50.748;12.630;2023-07-31T12:55:30;20.90;99.90
26107;DHT22;13866;50.748;12.630;2023-07-31T12:57:56;21.00;99.90
26107;DHT22;13866;50.748;12.630;2023-07-31T13:00:22;21.00;99.70
26107;DHT22;13866;50.748;12.630;2023-07-31T13:02:48;20.90;99.90
26107;DHT22;13866;50.748;12.630;2023-07-31T13:05:14;20.90;98.60
26107;DHT22;13866;50.748;12.630;2023-07-31T13:07:40;20.80;98.40
26107;DHT22;13866;50.748;12.630;2023-07-31T13:10:06;20.80;99.90
26107;DHT22;13866;50.748;12.630;2023-07-31T13:12:32;20.90;99.90
26107;DHT22;13866;50.748;12.630;2023-07-31T13:14:58;21.10;99.90
26107;DHT22;13866;50.748;12.630;2023-07-31T13:17:23;21.20;99.90
26107;DHT22;13866;50.748;12.630;2023-07-31T13:19:49;21.20;99.90
26107;DHT22;13866;50.748;12.630;2023-07-31T13:22:14;21.10;99.90
26107;DHT22;13866;50.748;12.630;2023-07-31T13:24:41;21.20;99.90
26107;DHT22;13866;50.748;12.630;2023-07-31T13:27:07;21.20;99.90
26107;DHT22;13866;50.748;12.630;2023-07-31T13:29:32;21.60;99.90
26107;DHT22;13866;50.748;12.630;2023-07-31T13:31:58;21.70;99.60
26107;DHT22;13866;50.748;12.630;2023-07-31T13:34:24;22.00;97.20
26107;DHT22;13866;50.748;12.630;2023-07-31T13:36:49;22.10;90.40
26107;DHT22;13866;50.748;12.630;2023-07-31T13:39:14;21.90;90.30
26107;DHT22;13866;50.748;12.630;2023-07-31T13:41:40;21.60;90.30
26107;DHT22;13866;50.748;12.630;2023-07-31T13:44:06;21.40;92.10
26107;DHT22;13866;50.748;12.630;2023-07-31T13:46:31;21.30;93.40
26107;DHT22;13866;50.748;12.630;2023-07-31T13:48:58;21.20;92.90
26107;DHT22;13866;50.748;12.630;2023-07-31T13:51:25;21.10;91.30
26107;DHT22;13866;50.748;12.630;2023-07-31T13:53:50;21.00;92.10
26107;DHT22;13866;50.748;12.630;2023-07-31T13:56:16;21.10;91.40
26107;DHT22;13866;50.748;12.630;2023-07-31T13:58:42;21.20;90.70
26107;DHT22;13866;50.748;12.630;2023-07-31T14:01:07;21.30;90.80
26107;DHT22;13866;50.748;12.630;2023-07-31T14:03:32;21.60;89.60
26107;DHT22;13866;50.748;12.630;2023-07-31T14:05:58;21.90;90.60
26107;DHT22;13866;50.748;12.630;2023-07-31T14:08:24;22.20;90.40
26107;DHT22;13866;50.748;12.630;2023-07-31T14:10:50;22.40;85.10
26107;DHT22;13866;50.748;12.630;2023-07-31T14:13:15;22.30;86.10
26107;DHT22;13866;50.748;12.630;2023-07-31T14:15:44;22.30;85.80
26107;DHT22;13866;50.748;12.630;2023-07-31T14:18:09;22.10;84.00
26107;DHT22;13866;50.748;12.630;2023-07-31T14:20:35;22.20;84.60
26107;DHT22;13866;50.748;12.630;2023-07-31T14:23:02;22.30;86.30
26107;DHT22;13866;50.748;12.630;2023-07-31T14:25:28;22.10;80.20
26107;DHT22;13866;50.748;12.630;2023-07-31T14:27:53;21.80;83.70
26107;DHT22;13866;50.748;12.630;2023-07-31T14:30:19;21.40;84.40
26107;DHT22;13866;50.748;12.630;2023-07-31T14:32:44;21.20;89.10
26107;DHT22;13866;50.748;12.630;2023-07-31T14:35:10;21.10;89.10
26107;DHT22;13866;50.748;12.630;2023-07-31T14:37:44;21.00;89.70
26107;DHT22;13866;50.748;12.630;2023-07-31T14:40:11;21.00;90.70
26107;DHT22;13866;50.748;12.630;2023-07-31T14:42:38;20.90;90.30
26107;DHT22;13866;50.748;12.630;2023-07-31T14:45:05;20.90;91.00
26107;DHT22;13866;50.748;12.630;2023-07-31T14:47:30;20.80;91.90
26107;DHT22;13866;50.748;12.630;2023-07-31T14:49:57;20.70;92.80
26107;DHT22;13866;50.748;12.630;2023-07-31T14:52:23;20.60;95.10
26107;DHT22;13866;50.748;12.630;2023-07-31T14:54:48;20.50;94.40
26107;DHT22;13866;50.748;12.630;2023-07-31T14:57:14;20.40;94.60
26107;DHT22;13866;50.748;12.630;2023-07-31T14:59:39;20.40;96.00
26107;DHT22;13866;50.748;12.630;2023-07-31T15:02:05;20.30;95.20
26107;DHT22;13866;50.748;12.630;2023-07-31T15:04:31;20.10;94.30
26107;DHT22;13866;50.748;12.630;2023-07-31T15:06:57;20.00;94.90
26107;DHT22;13866;50.748;12.630;2023-07-31T15:09:22;20.00;95.50
26107;DHT22;13866;50.748;12.630;2023-07-31T15:11:48;20.00;95.50
26107;DHT22;13866;50.748;12.630;2023-07-31T15:14:13;20.00;95.70
26107;DHT22;13866;50.748;12.630;2023-07-31T15:16:39;19.90;95.50